Date,TemperatureHighF,TemperatureAvgF,TemperatureLowF,DewpointHighF,DewpointAvgF,DewpointLowF,HumidityHigh,HumidityAvg,HumidityLow,PressureMaxIn,PressureMinIn,WindSpeedMaxMPH,WindSpeedAvgMPH,GustSpeedMaxMPH,PrecipitationSumIn
2013-2-1,19,19,18,16,14,11,78,75,73,30.35,30.33,13,5,13,0.00
2013-2-5,57,47,37,40,37,35,96,71,48,30.09,29.91,12,3,12,0.00
2013-2-6,52,41,29,38,32,28,96,70,41,30.27,30.08,15,5,16,0.00
2013-2-7,68,53,38,54,42,32,97,67,43,30.10,29.82,15,3,16,0.42
2013-2-8,51,39,32,50,35,28,97,85,71,30.37,29.89,21,8,23,0.11
2013-2-9,49,40,31,35,30,26,86,69,51,30.39,30.07,19,6,19,0.00
2013-2-10,58,52,46,55,45,32,97,76,50,30.07,29.70,29,7,32,0.54
2013-2-11,57,48,35,55,34,28,96,60,39,30.17,29.82,20,5,20,0.00
2013-2-12,50,41,27,36,31,26,95,70,44,30.18,29.85,17,5,17,0.00
2013-2-13,45,40,36,38,36,32,96,85,64,29.96,29.80,15,6,16,0.08
2013-2-14,61,47,37,41,37,36,96,73,43,30.01,29.90,16,4,16,0.00
2013-2-15,49,39,27,38,29,14,96,67,34,30.24,30.00,16,4,16,0.00
2013-2-16,39,30,23,24,18,8,92,62,30,30.24,30.17,15,3,16,0.00
2013-2-17,47,33,17,26,20,16,94,62,34,30.29,30.07,15,3,15,0.00
2013-2-18,61,50,40,48,37,21,97,64,34,30.07,29.70,38,9,38,0.75
2013-2-19,49,38,26,47,24,14,97,59,34,30.29,29.79,27,6,27,0.01
2013-2-20,32,26,21,21,16,11,81,65,50,30.41,30.28,15,5,15,0.00
2013-2-21,38,31,23,37,24,16,96,78,47,30.31,29.83,27,8,29,0.68
2013-2-22,46,41,35,41,37,31,96,86,74,30.06,29.82,17,5,18,0.02
2013-2-23,49,36,27,31,27,24,95,72,41,30.08,29.95,15,4,16,0.00
2013-2-24,53,38,24,31,26,21,94,67,37,30.18,30.01,15,5,16,0.00
2013-2-25,59,47,34,38,29,23,79,52,27,30.05,29.47,29,9,34,0.05
2013-2-26,51,44,39,49,42,35,97,90,74,29.67,29.33,22,6,23,0.52
2013-2-27,39,37,34,36,33,29,95,85,66,29.90,29.67,19,6,19,0.03
2013-2-28,40,35,32,33,30,28,95,82,71,30.08,29.89,18,4,19,0.00